Flight Track Log - Related Links

Times and Time Zones

All times are in EDT time to prevent confusion due to time zone crossing. See the N121JM flight status page for this flight to view local times or setup timezone preferences in your user account.

Time Position Orientation Groundspeed Altitude Reporting Facility
EDT Latitude Longitude Course Direction KTS MPH feet Rate Location/Type
Wed 08:32:13 AM 39.8608 -75.2753 259° West 175 201 800  Level FAA TRACON SMA TRACON (SMA)
Wed 08:32:33 AM 39.8578 -75.2950 259° West 177 204 1,700 2,850 Climbing FAA TRACON SMA TRACON (SMA)
Wed 08:32:53 AM 39.8544 -75.3158 258° West 178 205 2,700 2,700 Climbing FAA TRACON SMA TRACON (SMA)
Wed 08:33:13 AM 39.8517 -75.3356 260° West 179 206 3,500 2,195 Climbing FAA TRACON SMA TRACON (SMA)
Wed 08:33:34 AM 39.8517 -75.3636 270° West 210 242 4,200 2,400 Climbing FAA TRACON SMA TRACON (SMA)
Wed 08:33:53 AM 39.8558 -75.3897 282° West 237 273 5,100 2,462 Climbing FAA TRACON SMA TRACON (SMA)
Wed 08:34:13 AM 39.8611 -75.4153 285° West 244 281 5,800 2,550 Climbing FAA TRACON SMA TRACON (SMA)
Wed 08:34:33 AM 39.8692 -75.4494 287° West 248 285 6,800 2,850 Climbing FAA TRACON SMA TRACON (SMA)
Wed 08:34:53 AM 39.8764 -75.4756 290° West 254 292 7,700 2,250 Climbing FAA TRACON SMA TRACON (SMA)
Wed 08:35:13 AM 39.8839 -75.5028 290° West 257 296 8,300 1,800 Climbing FAA TRACON SMA TRACON (SMA)
Wed 08:35:33 AM 39.8931 -75.5378 289° West 263 303 8,900 1,350 Climbing FAA TRACON SMA TRACON (SMA)
Wed 08:35:53 AM 39.9003 -75.5656 289° West 265 305 9,200 1,350 Climbing FAA TRACON SMA TRACON (SMA)
Wed 08:36:13 AM 39.9083 -75.5933 291° West 270 311 9,800 2,400 Climbing FAA TRACON SMA TRACON (SMA)
Wed 08:36:33 AM 39.9161 -75.6311 285° West 267 307 10,800 2,850 Climbing FAA TRACON SMA TRACON (SMA)
Wed 08:36:53 AM 39.9200 -75.6606 280° West 270 311 11,700 2,850 Climbing FAA TRACON SMA TRACON (SMA)
Wed 08:37:13 AM 39.9217 -75.6906 274° West 271 312 12,700 3,231 Climbing FAA TRACON SMA TRACON (SMA)
Wed 08:37:32 AM 39.9206 -75.7164 267° West 267 307 13,800 3,538 Climbing FAA TRACON SMA TRACON (SMA)
Wed 08:37:52 AM 39.9178 -75.7528 264° West 260 299 15,000 2,250 Climbing FAA TRACON SMA TRACON (SMA)
Wed 08:38:12 AM 39.9164 -75.7694 264° West 262 302 15,300 1,577 Climbing FAA TRACON SMA TRACON (SMA)
Wed 08:40:28 AM 39.9144 -76.0431 270° West 333 383 19,100 1,858 Climbing New York Center
Wed 08:41:29 AM 39.9106 -76.1700 268° West 352 405 21,400 1,563 Climbing New York Center
Wed 08:42:27 AM 39.9097 -76.2836 269° West 352 405 22,200 814 Climbing New York Center
Wed 08:43:27 AM 39.9158 -76.4169 273° West 362 417 23,000 1,400 Climbing New York Center
Wed 08:44:27 AM 39.9197 -76.5497 272° West 368 423 25,000 1,574 Climbing New York Center
Wed 08:45:29 AM 39.9172 -76.6850 269° West 368 423 26,200 1,300 Climbing New York Center
Wed 08:46:27 AM 39.8750 -76.8222 248° West 389 448 27,600 1,945 Climbing New York Center
Wed 08:48:31 AM 39.7375 -77.1053 238° Southwest 411 473 32,100 2,185 Climbing Washington Center
Wed 08:49:31 AM 39.6775 -77.2333 239° Southwest 416 479 34,300 2,250 Climbing Washington Center
Wed 08:50:31 AM 39.6217 -77.3561 239° Southwest 416 479 36,600 2,050 Climbing Washington Center
Wed 08:51:31 AM 39.5636 -77.4731 237° Southwest 411 473 38,400 1,450 Climbing Washington Center
Wed 08:52:31 AM 39.5075 -77.5928 239° Southwest 399 459 39,500 900 Climbing Washington Center
Wed 08:53:31 AM 39.4472 -77.7092 236° Southwest 399 459 40,200 700 Climbing Washington Center
Wed 08:54:31 AM 39.3906 -77.8339 240° Southwest 399 459 40,900 750 Climbing Washington Center
Wed 08:55:31 AM 39.3383 -77.9611 242° Southwest 405 466 41,700 900 Climbing Washington Center
Wed 08:56:31 AM 39.2919 -78.0883 245° Southwest 400 460 42,700 650 Climbing Washington Center
Wed 08:57:31 AM 39.2414 -78.2153 243° Southwest 400 460 43,000 150 Climbing Washington Center
Wed 08:58:31 AM 39.1883 -78.3419 242° Southwest 400 460 43,000  Level Washington Center
Wed 08:59:31 AM 39.1375 -78.4736 244° Southwest 405 466 43,000  Level Washington Center
Wed 09:00:31 AM 39.0906 -78.5950 244° Southwest 405 466 43,000  Level Washington Center
Wed 09:01:31 AM 39.0372 -78.7236 242° Southwest 410 472 43,000  Level Washington Center
Wed 09:02:31 AM 38.9858 -78.8522 243° Southwest 410 472 43,000  Level Washington Center
Wed 09:03:31 AM 38.9325 -78.9808 242° Southwest 410 472 43,000  Level Washington Center
Wed 09:04:31 AM 38.8786 -79.1089 242° Southwest 405 466 43,000  Level Washington Center
Wed 09:05:31 AM 38.8350 -79.2428 247° West 405 466 43,000  Level Washington Center
Wed 09:06:31 AM 38.7931 -79.3897 250° West 405 466 43,000  Level Washington Center
Wed 09:07:31 AM 38.7908 -79.5228 269° West 405 466 43,000 250 Level Washington Center
Wed 09:08:31 AM 38.7564 -79.6783 254° West 413 475 43,500  Climbing Washington Center
Wed 09:09:31 AM 38.7308 -79.8178 257° West 415 478 43,000 -250 Descending Washington Center
Wed 09:10:31 AM 38.7075 -79.9414 256° West 408 470 43,000  Level Washington Center
Wed 09:11:31 AM 38.6836 -80.0783 257° West 408 470 43,000  Level Washington Center
Wed 09:12:31 AM 38.6528 -80.2361 256° West 408 470 43,000  Level Washington Center
Wed 09:13:45 AM 38.6225 -80.3839 255° West 404 465 43,000  Level Indianapolis Center
Wed 09:14:47 AM 38.5958 -80.5244 256° West 405 466 43,000  Level Indianapolis Center
Wed 09:15:49 AM 38.5681 -80.6664 256° West 411 473 43,000 -242 Level Indianapolis Center
Wed 09:16:51 AM 38.5425 -80.8067 257° West 406 467 42,500  Descending Indianapolis Center
Wed 09:17:52 AM 38.5081 -80.9753 255° West 406 467 43,000 244 Climbing Indianapolis Center
Wed 09:18:54 AM 38.4808 -81.1158 256° West 406 467 43,000  Level Indianapolis Center
Wed 09:19:56 AM 38.4528 -81.2550 256° West 402 463 43,000  Level Indianapolis Center
Wed 09:20:58 AM 38.4253 -81.3931 256° West 399 459 43,000  Level Indianapolis Center
Wed 09:22:00 AM 38.3975 -81.5344 256° West 403 464 43,000  Level Indianapolis Center
Wed 09:23:02 AM 38.3706 -81.6708 256° West 396 456 43,000  Level Indianapolis Center
Wed 09:24:04 AM 38.3481 -81.8061 258° West 389 448 43,000  Level Indianapolis Center
Wed 09:25:05 AM 38.3425 -81.9450 267° West 391 450 43,000  Level Indianapolis Center
Wed 09:26:07 AM 38.3364 -82.0875 267° West 399 459 43,000  Level Indianapolis Center
Wed 09:27:09 AM 38.3289 -82.2589 267° West 403 464 43,000  Level Indianapolis Center
Wed 09:28:11 AM 38.3208 -82.4025 266° West 404 465 43,000  Level Indianapolis Center
Wed 09:29:13 AM 38.3128 -82.5536 266° West 403 464 43,000  Level Indianapolis Center
Wed 09:30:15 AM 38.3044 -82.6925 266° West 396 456 43,000  Level Indianapolis Center
Wed 09:31:17 AM 38.2961 -82.8294 266° West 390 449 43,000  Level Indianapolis Center
Wed 09:32:19 AM 38.2881 -82.9650 266° West 384 442 43,000  Level Indianapolis Center
Wed 09:33:21 AM 38.2794 -83.1033 266° West 391 450 43,000  Level Indianapolis Center
Wed 09:34:22 AM 38.2703 -83.2425 265° West 394 453 43,000  Level Indianapolis Center
Wed 09:35:24 AM 38.2603 -83.4025 265° West 390 449 43,000  Level Indianapolis Center
Wed 09:36:26 AM 38.2511 -83.5397 265° West 389 448 43,000  Level Indianapolis Center
Wed 09:37:28 AM 38.2425 -83.6736 265° West 383 441 43,000  Level Indianapolis Center
Wed 09:38:30 AM 38.2336 -83.8103 265° West 388 447 43,000  Level Indianapolis Center
Wed 09:39:32 AM 38.2236 -83.9469 265° West 387 445 43,000  Level Indianapolis Center
Wed 09:40:34 AM 38.2136 -84.1028 265° West 383 441 43,000  Level Indianapolis Center
Wed 09:41:36 AM 38.2039 -84.2378 265° West 381 438 43,000  Level Indianapolis Center
Wed 09:42:38 AM 38.1931 -84.3733 264° West 384 442 43,000  Level Indianapolis Center
Wed 09:43:39 AM 38.1844 -84.5053 265° West 377 434 43,000  Level Indianapolis Center
Wed 09:44:41 AM 38.1747 -84.6383 265° West 377 434 43,000  Level Indianapolis Center
Wed 09:45:43 AM 38.1653 -84.7703 265° West 377 434 43,000  Level Indianapolis Center
Wed 09:46:45 AM 38.1525 -84.9278 264° West 383 441 43,000  Level Indianapolis Center
Wed 09:47:47 AM 38.1433 -85.0594 265° West 376 433 43,000  Level Indianapolis Center
Wed 09:48:49 AM 38.1333 -85.1889 264° West 369 425 43,000  Level Indianapolis Center
Wed 09:49:51 AM 38.1228 -85.3111 264° West 368 423 43,000  Level Indianapolis Center
Wed 09:50:53 AM 38.1136 -85.4428 265° West 372 428 43,000  Level Indianapolis Center
Wed 09:51:55 AM 38.1019 -85.5764 264° West 378 435 43,000  Level Indianapolis Center
Wed 09:52:57 AM 38.0914 -85.7353 265° West 376 433 43,000  Level Indianapolis Center
Wed 09:53:59 AM 38.0819 -85.8683 265° West 376 433 43,000  Level Indianapolis Center
Wed 09:55:01 AM 38.0719 -85.9994 265° West 373 429 43,000  Level Indianapolis Center
Wed 09:56:03 AM 38.0628 -86.1311 265° West 371 427 43,000  Level Indianapolis Center
Wed 09:57:05 AM 38.0519 -86.2617 264° West 370 426 43,000  Level Indianapolis Center
Wed 09:58:07 AM 38.0425 -86.3911 265° West 366 421 43,000  Level Indianapolis Center
Wed 09:59:09 AM 38.0319 -86.5206 264° West 367 422 43,000  Level Indianapolis Center
Wed 10:00:11 AM 38.0217 -86.6494 264° West 365 420 43,000  Level Indianapolis Center
Wed 10:01:13 AM 38.0089 -86.8069 264° West 368 423 43,000  Level Indianapolis Center
Wed 10:02:15 AM 37.9983 -86.9411 264° West 376 433 43,000  Level Indianapolis Center
Wed 10:03:17 AM 37.9867 -87.0736 264° West 374 430 43,000  Level Indianapolis Center
Wed 10:04:19 AM 37.9756 -87.2058 264° West 372 428 43,000  Level Indianapolis Center
Wed 10:05:21 AM 37.9650 -87.3361 264° West 369 425 43,000  Level Indianapolis Center
Wed 10:06:23 AM 37.9539 -87.4653 264° West 366 421 43,000  Level Indianapolis Center
Wed 10:07:25 AM 37.9433 -87.5939 264° West 365 420 43,000  Level Indianapolis Center
Wed 10:08:27 AM 37.9314 -87.7217 263° West 361 415 43,000  Level Indianapolis Center
Wed 10:09:29 AM 37.9197 -87.8489 263° West 361 415 43,000  Level Indianapolis Center
Wed 10:10:04 AM 37.9133 -87.9247 264° West 361 415 43,000  Level Kansas City Center
Wed 10:11:06 AM 37.9008 -88.0503 263° West 359 413 43,000  Level Kansas City Center
Wed 10:12:08 AM 37.8886 -88.1783 263° West 362 417 43,000  Level Kansas City Center
Wed 10:13:09 AM 37.8767 -88.3078 263° West 367 422 43,000  Level Kansas City Center
Wed 10:14:13 AM 37.8611 -88.4608 263° West 365 420 43,000  Level Kansas City Center
Wed 10:15:14 AM 37.8492 -88.5858 263° West 360 414 43,000  Level Kansas City Center
Wed 10:16:15 AM 37.8367 -88.7097 263° West 355 409 43,000  Level Kansas City Center
Wed 10:17:16 AM 37.8239 -88.8275 262° West 357 411 43,000  Level Kansas City Center
Wed 10:18:19 AM 37.8097 -88.9678 263° West 359 413 43,000  Level Kansas City Center
Wed 10:19:20 AM 37.7964 -89.0942 262° West 362 417 43,000  Level Kansas City Center
Wed 10:20:24 AM 37.7833 -89.2217 263° West 365 420 43,000  Level Kansas City Center
Wed 10:21:26 AM 37.7703 -89.3483 263° West 366 421 43,000  Level Kansas City Center
Wed 10:22:28 AM 37.7483 -89.4839 258° West 365 420 43,000  Level Kansas City Center
Wed 10:23:29 AM 37.7231 -89.6075 256° West 362 417 43,000  Level Kansas City Center
Wed 10:24:30 AM 37.6978 -89.7289 255° West 360 414 43,000  Level Kansas City Center
Wed 10:25:32 AM 37.6728 -89.8522 256° West 361 415 43,000  Level Kansas City Center
Wed 10:26:33 AM 37.6483 -89.9744 256° West 361 415 43,000  Level Kansas City Center
Wed 10:27:36 AM 37.6181 -90.1211 255° West 360 414 43,000  Level Kansas City Center
Wed 10:28:38 AM 37.5925 -90.2422 255° West 359 413 43,000  Level Kansas City Center
Wed 10:29:40 AM 37.5672 -90.3633 255° West 358 412 43,000  Level Kansas City Center
Wed 10:30:41 AM 37.5425 -90.4861 256° West 359 413 43,000  Level Kansas City Center
Wed 10:31:43 AM 37.5164 -90.6056 255° West 357 411 43,000  Level Kansas City Center
Wed 10:32:45 AM 37.4911 -90.7269 255° West 357 411 43,000  Level Kansas City Center
Wed 10:33:48 AM 37.4636 -90.8506 254° West 350 403 43,000  Level Kansas City Center
Wed 10:34:49 AM 37.4375 -90.9711 255° West 353 406 43,000  Level Kansas City Center
Wed 10:35:50 AM 37.4108 -91.0911 254° West 355 409 43,000  Level Kansas City Center
Wed 10:36:55 AM 37.3808 -91.2314 255° West 347 399 43,000  Level Kansas City Center
Wed 10:37:55 AM 37.3564 -91.3486 255° West 345 397 43,000 -50 Level Kansas City Center
Wed 10:38:56 AM 37.3303 -91.4661 254° West 346 398 42,900 -288 Descending Kansas City Center
Wed 10:40:00 AM 37.3033 -91.5850 254° West 350 403 42,400 -823 Descending Kansas City Center
Wed 10:41:00 AM 37.2783 -91.7031 255° West 350 403 41,200 -1,574 Descending Kansas City Center
Wed 10:42:02 AM 37.2514 -91.8231 254° West 352 405 39,200 -1,935 Descending Kansas City Center
Wed 10:43:04 AM 37.2233 -91.9486 254° West 365 420 37,200 -1,984 Descending Kansas City Center
Wed 10:44:06 AM 37.1958 -92.0733 255° West 368 423 35,100 -2,095 Descending Kansas City Center
Wed 10:45:10 AM 37.1625 -92.2231 254° West 369 425 32,800 -2,177 Descending Kansas City Center
Wed 10:46:10 AM 37.1347 -92.3467 254° West 369 425 30,600 -2,311 Descending Kansas City Center
Wed 10:47:12 AM 37.1069 -92.4694 254° West 366 421 28,100 -2,419 Descending Kansas City Center
Wed 10:48:14 AM 37.0803 -92.5869 254° West 357 411 25,600 -2,304 Descending Kansas City Center
Wed 10:49:17 AM 37.0539 -92.6992 254° West 343 395 23,300 -2,256 Descending Kansas City Center
Wed 10:50:19 AM 37.0289 -92.8078 254° West 331 381 20,900 -2,213 Descending Kansas City Center
Wed 10:51:19 AM 37.0039 -92.9139 254° West 322 371 18,800 -1,742 Descending Kansas City Center
Wed 10:52:23 AM 36.9803 -93.0158 254° West 311 358 17,300 -1,488 Descending Kansas City Center
Wed 10:53:24 AM 36.9517 -93.1364 253° West 303 349 15,700 -1,475 Descending Kansas City Center
Wed 10:54:25 AM 36.9278 -93.2350 253° West 298 343 14,300 -1,248 Descending Kansas City Center
Wed 10:55:29 AM 36.8819 -93.3264 238° Southwest 312 359 13,100 -1,087 Descending Kansas City Center
Wed 10:56:32 AM 36.8150 -93.4086 225° Southwest 321 369 12,000 -1,008 Descending Kansas City Center
Wed 10:57:34 AM 36.7517 -93.4897 226° Southwest 326 375 11,000 -836 Descending Kansas City Center
Wed 10:58:34 AM 36.6889 -93.5683 225° Southwest 323 372 10,300 -496 Descending Kansas City Center
Wed 10:59:35 AM 36.6247 -93.6492 225° Southwest 327 376 10,000 -142 Descending Kansas City Center
Wed 11:00:41 AM 36.5617 -93.7281 225° Southwest 325 374 10,000 -48 Level Kansas City Center
Wed 11:01:41 AM 36.4961 -93.8103 225° Southwest 321 369 9,900 -683 Descending Kansas City Center
Wed 11:02:44 AM 36.4414 -93.8764 224° Southwest 288 331 8,600 -1,536 Descending Kansas City Center
Wed 11:03:46 AM 36.3803 -93.9533 225° Southwest 263 303 6,700 -1,268 Descending Kansas City Center
Wed 11:04:47 AM 36.3292 -94.0103 222° Southwest 266 306 6,000 -738 Descending Kansas City Center
Wed 11:05:48 AM 36.2733 -94.0803 225° Southwest 265 305 5,200 -768 Descending Kansas City Center
Wed 11:06:52 AM 36.2306 -94.1428 230° Southwest 256 295 4,400 -816 Descending Kansas City Center
Wed 11:07:53 AM 36.2139 -94.2081 252° West 226 260 3,500 -885 Descending Kansas City Center
Wed 11:08:54 AM 36.2086 -94.2697 264° West 199 229 2,600 -885 Descending Kansas City Center
Wed 11:10:00 AM 36.2667 -94.3000 270° West  Level FlightAware Approximate
Wed 11:17:00 AM 36.2816 -94.3078 270° West  Level Estimated
Wed 11:18:00 AM 36.2816 -94.3078 270° West  Level Estimated
Wed 11:19:00 AM 36.2816 -94.3078 270° West  Level Estimated

Login

Don't have an account? Register now (free) for customized features, flight alerts, and more!